createdAt,value
2019-05-26T00:02:00.702Z,99422.08
2019-05-26T00:04:28.712Z,99422.73
2019-05-26T00:06:56.500Z,99419.64
2019-05-26T00:09:24.340Z,99428.08
2019-05-26T00:11:52.065Z,99424.88
2019-05-26T00:14:19.913Z,99433.70
2019-05-26T00:16:47.628Z,99427.36
2019-05-26T00:19:15.430Z,99432.68
2019-05-26T00:21:43.254Z,99433.03
2019-05-26T00:24:10.992Z,99431.25
2019-05-26T00:26:38.795Z,99429.37
2019-05-26T00:29:06.566Z,99424.84
2019-05-26T00:31:34.358Z,99422.25
2019-05-26T00:34:02.189Z,99430.37
2019-05-26T00:36:30.012Z,99428.92
2019-05-26T00:39:00.283Z,99433.29
2019-05-26T00:41:27.491Z,99437.64
2019-05-26T00:43:55.309Z,99435.60
2019-05-26T00:46:23.142Z,99430.07
2019-05-26T00:48:50.984Z,99426.19
2019-05-26T00:51:18.797Z,99429.37
2019-05-26T00:53:46.821Z,99427.12
2019-05-26T00:56:14.681Z,99429.73
2019-05-26T00:58:42.421Z,99430.23
2019-05-26T01:01:10.322Z,99428.61
2019-05-26T01:03:38.117Z,99430.91
2019-05-26T01:06:05.892Z,99431.57
2019-05-26T01:08:33.618Z,99437.54
2019-05-26T01:11:01.700Z,99436.91
2019-05-26T01:13:29.598Z,99435.75
2019-05-26T01:15:57.400Z,99435.41
2019-05-26T01:18:25.171Z,99436.34
2019-05-26T01:20:52.967Z,99436.49
2019-05-26T01:23:20.961Z,99440.77
2019-05-26T01:25:48.722Z,99443.53
2019-05-26T01:28:16.451Z,99441.53
2019-05-26T01:30:44.777Z,99441.08
2019-05-26T01:33:17.753Z,99439.64
2019-05-26T01:35:45.698Z,99438.03
2019-05-26T01:38:23.881Z,99440.06
2019-05-26T01:40:44.807Z,99442.53
2019-05-26T01:43:13.182Z,99442.90
2019-05-26T01:45:40.992Z,99443.09
2019-05-26T01:48:08.981Z,99446.28
2019-05-26T01:50:36.740Z,99449.41
2019-05-26T01:53:06.125Z,99452.23
2019-05-26T01:55:34.015Z,99451.08
2019-05-26T01:58:01.812Z,99450.56
2019-05-26T02:00:31.959Z,99454.35
2019-05-26T02:02:59.891Z,99454.30
2019-05-26T02:05:27.702Z,99450.63
2019-05-26T02:07:55.559Z,99455.92
2019-05-26T02:10:23.661Z,99453.67
2019-05-26T02:12:51.482Z,99451.13
2019-05-26T02:15:20.088Z,99454.22
2019-05-26T02:17:47.863Z,99450.89
2019-05-26T02:20:15.831Z,99446.20
2019-05-26T02:22:43.649Z,99449.94
2019-05-26T02:25:11.585Z,99445.95
2019-05-26T02:27:39.307Z,99444.58
2019-05-26T02:30:07.721Z,99445.34
2019-05-26T02:32:35.476Z,99438.41
2019-05-26T02:35:04.263Z,99436.98
2019-05-26T02:37:32.009Z,99434.65
2019-05-26T02:39:59.759Z,99435.91
2019-05-26T02:42:27.578Z,99435.97
2019-05-26T02:44:59.288Z,99442.78
2019-05-26T02:47:26.413Z,99440.82
2019-05-26T02:49:54.283Z,99436.05
2019-05-26T02:52:22.020Z,99437.86
2019-05-26T02:54:49.816Z,99436.23
2019-05-26T02:57:17.608Z,99440.66
2019-05-26T02:59:45.339Z,99442.34
2019-05-26T03:02:13.244Z,99438.77
2019-05-26T03:04:46.406Z,99442.19
2019-05-26T03:07:15.529Z,99445.23
2019-05-26T03:09:44.108Z,99441.88
2019-05-26T03:12:11.885Z,99441.78
2019-05-26T03:14:43.465Z,99439.10
2019-05-26T03:17:11.300Z,99440.97
2019-05-26T03:19:41.377Z,99439.36
2019-05-26T03:22:09.398Z,99437.09
2019-05-26T03:24:40.900Z,99434.50
2019-05-26T03:27:08.662Z,99441.80
2019-05-26T03:29:36.566Z,99447.40
2019-05-26T03:32:04.466Z,99449.40
2019-05-26T03:34:32.223Z,99442.80
2019-05-26T03:36:59.992Z,99443.45
2019-05-26T03:39:43.290Z,99452.00
2019-05-26T03:41:57.699Z,99452.21
2019-05-26T03:44:25.515Z,99447.11
2019-05-26T03:46:53.231Z,99444.14
2019-05-26T03:49:21.186Z,99444.13
2019-05-26T03:51:48.996Z,99446.44
2019-05-26T03:54:16.915Z,99442.48
2019-05-26T03:56:44.712Z,99444.75
2019-05-26T03:59:12.551Z,99440.61
2019-05-26T04:01:40.400Z,99438.80
2019-05-26T04:04:08.303Z,99444.86
2019-05-26T04:06:36.061Z,99441.89
2019-05-26T04:09:06.552Z,99446.50
2019-05-26T04:11:34.292Z,99448.97
2019-05-26T04:14:02.155Z,99452.69
2019-05-26T04:16:29.935Z,99457.22
2019-05-26T04:18:58.966Z,99456.34
2019-05-26T04:21:26.703Z,99453.64
2019-05-26T04:23:54.666Z,99458.20
2019-05-26T04:26:22.424Z,99453.06
2019-05-26T04:28:50.236Z,99454.15
2019-05-26T04:31:18.202Z,99454.39
2019-05-26T04:33:46.008Z,99453.02
2019-05-26T04:36:13.809Z,99451.59
2019-05-26T04:38:41.659Z,99450.31
2019-05-26T04:41:09.395Z,99456.27
2019-05-26T04:43:37.281Z,99458.98
2019-05-26T04:46:05.020Z,99458.42
2019-05-26T04:48:32.821Z,99464.53
2019-05-26T04:51:00.593Z,99464.86
2019-05-26T04:53:28.360Z,99465.74
2019-05-26T04:55:56.104Z,99469.58
2019-05-26T04:58:23.859Z,99464.36
2019-05-26T05:00:51.658Z,99466.75
2019-05-26T05:03:19.412Z,99469.47
2019-05-26T05:05:47.383Z,99465.82
2019-05-26T05:08:17.470Z,99464.45
2019-05-26T05:10:45.274Z,99463.27
2019-05-26T05:13:13.146Z,99460.05
2019-05-26T05:15:40.929Z,99459.53
2019-05-26T05:18:08.729Z,99457.00
2019-05-26T05:20:36.590Z,99461.50
2019-05-26T05:23:05.491Z,99456.56
2019-05-26T05:25:33.308Z,99459.99
2019-05-26T05:28:01.026Z,99458.20
2019-05-26T05:30:28.799Z,99452.71
2019-05-26T05:32:56.665Z,99456.68
2019-05-26T05:35:24.443Z,99451.23
2019-05-26T05:37:52.275Z,99474.51
2019-05-26T05:40:19.997Z,99494.95
2019-05-26T05:42:47.771Z,99479.84
2019-05-26T05:45:15.573Z,99476.03
2019-05-26T05:47:44.560Z,99471.41
2019-05-26T05:50:14.061Z,99468.30
2019-05-26T05:52:41.937Z,99463.39
2019-05-26T05:55:10.341Z,99458.07
2019-05-26T05:57:38.085Z,99460.97
2019-05-26T06:00:07.535Z,99450.90
2019-05-26T06:02:35.459Z,99459.73
2019-05-26T06:05:04.011Z,99454.59
2019-05-26T06:07:31.920Z,99454.50
2019-05-26T06:09:59.682Z,99446.70
2019-05-26T06:12:27.534Z,99448.19
2019-05-26T06:14:55.299Z,99441.94
2019-05-26T06:17:23.148Z,99441.92
2019-05-26T06:19:50.880Z,99437.65
2019-05-26T06:22:18.648Z,99435.63
2019-05-26T06:24:46.381Z,99431.23
2019-05-26T06:27:14.311Z,99439.32
2019-05-26T06:29:57.633Z,99436.83
2019-05-26T06:32:11.919Z,99435.97
2019-05-26T06:34:39.804Z,99433.52
2019-05-26T06:37:07.512Z,99431.38
2019-05-26T06:39:35.377Z,99429.45
2019-05-26T06:42:03.187Z,99420.11
2019-05-26T06:44:31.013Z,99421.84
2019-05-26T06:46:59.185Z,99422.39
2019-05-26T06:49:27.051Z,99415.91
2019-05-26T06:51:54.870Z,99411.38
2019-05-26T06:54:22.786Z,99412.77
2019-05-26T06:56:50.519Z,99407.61
2019-05-26T06:59:18.347Z,99410.52
2019-05-26T07:01:46.111Z,99410.66
2019-05-26T07:04:14.139Z,99406.80
2019-05-26T07:06:41.881Z,99399.92
2019-05-26T07:09:09.693Z,99397.70
2019-05-26T07:11:50.526Z,99398.93
2019-05-26T07:14:07.160Z,99402.03
2019-05-26T07:16:38.497Z,99407.30
2019-05-26T07:19:04.614Z,99402.89
2019-05-26T07:21:32.395Z,99403.08
2019-05-26T07:24:00.264Z,99402.33
2019-05-26T07:26:28.028Z,99398.99
2019-05-26T07:28:55.804Z,99399.02
2019-05-26T07:31:23.563Z,99407.44
2019-05-26T07:33:51.624Z,99403.92
2019-05-26T07:36:19.432Z,99398.69
2019-05-26T07:38:47.253Z,99400.05
2019-05-26T07:41:15.009Z,99396.98
2019-05-26T07:43:43.015Z,99396.69
2019-05-26T07:46:10.868Z,99396.27
2019-05-26T07:48:38.775Z,99394.27
2019-05-26T07:51:06.552Z,99391.03
2019-05-26T07:53:34.293Z,99380.88
2019-05-26T07:56:02.091Z,99375.13
2019-05-26T07:58:29.911Z,99376.63
2019-05-26T08:00:57.733Z,99371.61
2019-05-26T08:03:27.449Z,99372.80
2019-05-26T08:05:55.181Z,99370.81
2019-05-26T08:08:22.922Z,99373.20
2019-05-26T08:10:51.008Z,99371.61
2019-05-26T08:13:18.788Z,99364.09
2019-05-26T08:15:46.595Z,99365.31
2019-05-26T08:18:14.441Z,99358.06
2019-05-26T08:20:43.048Z,99372.31
2019-05-26T08:23:10.891Z,99363.23
2019-05-26T08:25:38.660Z,99368.47
2019-05-26T08:28:06.385Z,99323.30
2019-05-26T08:30:34.171Z,99357.22
2019-05-26T08:33:02.010Z,99359.67
2019-05-26T08:35:29.788Z,99355.45
2019-05-26T08:37:57.630Z,99350.04
2019-05-26T08:40:25.425Z,99352.34
2019-05-26T08:42:53.287Z,99351.77
2019-05-26T08:45:23.112Z,99345.72
2019-05-26T08:47:51.248Z,99298.50
2019-05-26T08:50:19.110Z,99293.70
2019-05-26T08:52:47.168Z,99342.47
2019-05-26T08:55:15.141Z,99331.47
2019-05-26T08:57:43.023Z,99310.16
2019-05-26T09:00:11.585Z,99290.18
2019-05-26T09:02:39.488Z,99333.86
2019-05-26T09:05:08.386Z,99296.91
2019-05-26T09:07:36.228Z,99288.66
2019-05-26T09:10:06.024Z,99298.23
2019-05-26T09:12:33.950Z,99296.03
2019-05-26T09:15:01.830Z,99345.55
2019-05-26T09:17:29.567Z,99326.41
2019-05-26T09:19:57.402Z,99321.85
2019-05-26T09:22:25.188Z,99294.27
2019-05-26T09:24:52.936Z,99278.08
2019-05-26T09:27:20.766Z,99289.73
2019-05-26T09:29:48.568Z,99302.98
2019-05-26T09:32:16.391Z,99292.29
2019-05-26T09:34:44.160Z,99304.33
2019-05-26T09:37:11.983Z,99289.84
2019-05-26T09:39:39.816Z,99291.66
2019-05-26T09:42:07.617Z,99289.78
2019-05-26T09:44:35.400Z,99282.42
2019-05-26T09:47:03.186Z,99313.84
2019-05-26T09:49:31.001Z,99306.02
2019-05-26T09:51:58.802Z,99305.13
2019-05-26T09:54:26.780Z,99290.81
2019-05-26T09:56:54.656Z,99276.70
2019-05-26T09:59:22.543Z,99275.14
2019-05-26T10:01:50.382Z,99278.84
2019-05-26T10:04:18.422Z,99273.59
2019-05-26T10:06:46.224Z,99262.02
2019-05-26T10:09:14.233Z,99239.41
2019-05-26T10:11:42.085Z,99272.67
2019-05-26T10:14:10.021Z,99265.64
2019-05-26T10:16:37.809Z,99251.55
2019-05-26T10:19:05.605Z,99252.03
2019-05-26T10:21:33.463Z,99256.16
2019-05-26T10:24:03.486Z,99255.74
2019-05-26T10:26:31.300Z,99251.41
2019-05-26T10:29:00.659Z,99254.17
2019-05-26T10:31:29.951Z,99248.14
2019-05-26T10:33:57.900Z,99247.55
2019-05-26T10:36:25.676Z,99251.25
2019-05-26T10:38:53.546Z,99255.07
2019-05-26T10:41:21.302Z,99247.76
2019-05-26T10:43:49.970Z,99241.28
2019-05-26T10:46:18.328Z,99247.03
2019-05-26T10:48:46.807Z,99241.73
2019-05-26T10:51:15.266Z,99243.98
2019-05-26T10:53:43.951Z,99233.55
2019-05-26T10:56:12.403Z,99235.80
2019-05-26T10:58:40.763Z,99239.11
2019-05-26T11:01:11.128Z,99227.27
2019-05-26T11:03:40.276Z,99224.54
2019-05-26T11:06:08.715Z,99225.22
2019-05-26T11:08:37.114Z,99208.91
2019-05-26T11:11:05.653Z,99201.05
2019-05-26T11:14:02.531Z,99222.90
2019-05-26T11:16:20.691Z,99204.66
2019-05-26T11:18:48.524Z,99214.01
2019-05-26T11:21:18.840Z,99212.11
2019-05-26T11:23:46.834Z,99202.44
2019-05-26T11:26:14.560Z,99195.42
2019-05-26T11:29:02.795Z,99188.59
2019-05-26T11:31:30.661Z,99179.59
2019-05-26T11:33:58.608Z,99180.38
2019-05-26T11:36:26.355Z,99170.20
2019-05-26T11:38:54.207Z,99170.50
2019-05-26T11:41:21.978Z,99153.16
2019-05-26T11:43:50.372Z,99163.42
2019-05-26T11:46:18.221Z,99163.86
2019-05-26T11:48:46.246Z,99172.34
2019-05-26T11:51:15.718Z,99164.55
2019-05-26T11:53:45.987Z,99161.89
2019-05-26T11:56:14.427Z,99156.34
2019-05-26T11:58:42.882Z,99162.83
2019-05-26T12:01:11.037Z,99165.48
2019-05-26T12:03:39.142Z,99153.11
2019-05-26T12:06:06.906Z,99158.38
2019-05-26T12:08:34.775Z,99154.81
2019-05-26T12:11:02.536Z,99157.59
2019-05-26T12:13:30.281Z,99154.73
2019-05-26T12:15:58.130Z,99137.88
2019-05-26T12:18:26.047Z,99143.73
2019-05-26T12:20:53.810Z,99146.84
2019-05-26T12:23:21.655Z,99143.01
2019-05-26T12:25:49.430Z,99139.27
2019-05-26T12:28:17.232Z,99145.68
2019-05-26T12:30:44.989Z,99144.81
2019-05-26T12:33:12.777Z,99137.73
2019-05-26T12:35:46.579Z,99134.00
2019-05-26T12:38:14.857Z,99121.62
2019-05-26T12:40:43.230Z,99123.64
2019-05-26T12:43:11.101Z,99121.83
2019-05-26T12:45:39.065Z,99121.97
2019-05-26T12:48:07.026Z,99136.06
2019-05-26T12:50:34.943Z,99125.90
2019-05-26T12:53:03.279Z,99118.33
2019-05-26T12:55:31.146Z,99112.59
2019-05-26T12:57:58.914Z,99114.29
2019-05-26T13:00:26.721Z,99116.41
2019-05-26T13:02:54.687Z,99108.02
2019-05-26T13:05:22.622Z,99097.20
2019-05-26T13:07:50.440Z,99098.62
2019-05-26T13:10:18.444Z,99099.77
2019-05-26T13:12:46.273Z,99089.23
2019-05-26T13:15:14.722Z,99092.02
2019-05-26T13:17:42.551Z,99097.45
2019-05-26T13:20:12.553Z,99105.52
2019-05-26T13:22:41.035Z,99099.53
2019-05-26T13:25:28.410Z,99087.21
2019-05-26T13:27:56.389Z,99097.61
2019-05-26T13:30:24.993Z,99102.08
2019-05-26T13:32:52.885Z,99080.20
2019-05-26T13:35:21.267Z,99083.34
2019-05-26T13:37:49.151Z,99080.52
2019-05-26T13:40:17.083Z,99088.23
2019-05-26T13:42:44.934Z,99084.63
2019-05-26T13:45:22.580Z,99082.25
2019-05-26T13:47:43.027Z,99085.69
2019-05-26T13:50:11.529Z,99075.58
2019-05-26T13:52:39.319Z,99078.42
2019-05-26T13:55:07.600Z,99081.86
2019-05-26T13:57:35.442Z,99081.16
2019-05-26T14:00:04.599Z,99069.75
2019-05-26T14:02:33.784Z,99072.75
2019-05-26T14:05:01.619Z,99075.24
2019-05-26T14:07:29.643Z,99072.63
2019-05-26T14:09:57.489Z,99075.41
2019-05-26T14:12:25.463Z,99072.58
2019-05-26T14:14:54.475Z,99071.02
2019-05-26T14:17:23.599Z,99067.95
2019-05-26T14:19:51.581Z,99059.20
2019-05-26T14:22:19.376Z,99067.88
2019-05-26T14:24:53.894Z,99073.01
2019-05-26T14:27:17.006Z,99065.86
2019-05-26T14:29:44.813Z,99070.11
2019-05-26T14:32:12.656Z,99062.66
2019-05-26T14:34:40.447Z,99042.33
2019-05-26T14:37:08.291Z,99048.16
2019-05-26T14:39:36.109Z,99045.68
2019-05-26T14:42:03.959Z,99038.73
2019-05-26T14:44:31.975Z,99042.33
2019-05-26T14:46:59.743Z,99044.09
2019-05-26T14:49:27.652Z,99043.96
2019-05-26T14:51:55.405Z,99045.66
2019-05-26T14:54:23.426Z,99050.41
2019-05-26T14:56:51.251Z,99045.36
2019-05-26T14:59:19.056Z,99043.23
2019-05-26T15:01:46.829Z,99040.52
2019-05-26T15:04:15.193Z,99043.59
2019-05-26T15:06:43.384Z,99050.11
2019-05-26T15:09:24.329Z,99050.30
2019-05-26T15:11:40.883Z,99048.89
2019-05-26T15:14:08.887Z,99046.23
2019-05-26T15:16:36.699Z,99051.80
2019-05-26T15:19:05.124Z,99053.20
2019-05-26T15:21:33.279Z,99052.77
2019-05-26T15:24:01.541Z,99058.39
2019-05-26T15:26:29.398Z,99057.81
2019-05-26T15:28:57.195Z,99049.18
2019-05-26T15:31:24.963Z,99044.45
2019-05-26T15:33:52.743Z,99043.05
2019-05-26T15:36:20.541Z,99041.75
2019-05-26T15:38:48.334Z,99041.05
2019-05-26T15:41:16.057Z,99039.85
2019-05-26T15:43:43.817Z,99038.01
2019-05-26T15:46:24.281Z,99043.44
2019-05-26T15:48:41.316Z,99044.77
2019-05-26T15:51:09.100Z,99040.70
2019-05-26T15:53:36.902Z,99034.14
2019-05-26T15:56:04.671Z,99034.08
2019-05-26T15:58:32.462Z,99039.44
2019-05-26T16:01:00.316Z,99036.91
2019-05-26T16:03:33.352Z,99037.27
2019-05-26T16:06:01.152Z,99029.85
2019-05-26T16:08:28.929Z,99027.83
2019-05-26T16:10:56.714Z,99030.59
2019-05-26T16:13:24.707Z,99035.66
2019-05-26T16:15:52.488Z,99034.98
2019-05-26T16:18:20.278Z,99029.45
2019-05-26T16:20:48.009Z,99033.08
2019-05-26T16:23:35.260Z,99024.97
2019-05-26T16:26:03.082Z,99019.63
2019-05-26T16:28:30.816Z,99019.97
2019-05-26T16:30:58.606Z,99015.88
2019-05-26T16:33:26.378Z,99017.91
2019-05-26T16:35:55.617Z,99015.88
2019-05-26T16:38:23.859Z,99011.83
2019-05-26T16:40:51.632Z,99012.81
2019-05-26T16:43:19.367Z,99015.50
2019-05-26T16:45:55.666Z,99016.34
2019-05-26T16:48:16.850Z,99012.83
2019-05-26T16:50:44.658Z,99014.39
2019-05-26T16:53:12.452Z,99008.53
2019-05-26T16:55:40.211Z,99015.11
2019-05-26T16:58:08.000Z,99008.38
2019-05-26T17:00:35.791Z,99008.84
2019-05-26T17:03:04.014Z,99009.94
2019-05-26T17:05:31.841Z,99005.88
2019-05-26T17:07:59.628Z,99001.53
2019-05-26T17:10:27.786Z,98995.50
2019-05-26T17:12:55.961Z,98998.10
2019-05-26T17:15:23.710Z,99006.00
2019-05-26T17:17:51.433Z,99000.79
2019-05-26T17:20:19.763Z,99001.50
2019-05-26T17:22:52.583Z,99000.47
2019-05-26T17:25:20.391Z,98999.59
2019-05-26T17:27:48.198Z,98999.45
2019-05-26T17:30:17.452Z,98994.98
2019-05-26T17:32:45.186Z,98976.04
2019-05-26T17:35:12.973Z,98993.72
2019-05-26T17:37:40.735Z,98991.11
2019-05-26T17:40:10.612Z,98983.88
2019-05-26T17:42:38.874Z,98985.02
2019-05-26T17:45:07.201Z,98983.53
2019-05-26T17:47:34.979Z,98985.78
2019-05-26T17:50:03.606Z,98981.96
2019-05-26T17:52:31.356Z,98980.78
2019-05-26T17:54:59.158Z,98983.70
2019-05-26T17:57:26.945Z,98975.88
2019-05-26T17:59:54.852Z,98977.92
2019-05-26T18:02:22.604Z,98975.59
2019-05-26T18:04:50.399Z,98976.91
2019-05-26T18:07:21.039Z,98974.27
2019-05-26T18:09:48.854Z,98976.53
2019-05-26T18:12:16.630Z,98976.24
2019-05-26T18:14:44.527Z,98976.33
2019-05-26T18:17:12.574Z,98975.12
2019-05-26T18:19:40.300Z,98972.13
2019-05-26T18:22:08.295Z,98979.43
2019-05-26T18:24:38.303Z,98971.52
2019-05-26T18:27:06.561Z,98971.96
2019-05-26T18:29:34.507Z,98972.56
2019-05-26T18:32:03.331Z,98971.13
2019-05-26T18:34:31.503Z,98972.47
2019-05-26T18:36:59.396Z,98969.86
2019-05-26T18:39:27.187Z,98964.56
2019-05-26T18:41:55.080Z,98969.75
2019-05-26T18:44:23.215Z,98968.30
2019-05-26T18:46:53.514Z,98969.48
2019-05-26T18:49:21.905Z,98963.58
2019-05-26T18:51:49.611Z,98971.25
2019-05-26T18:54:17.453Z,98969.48
2019-05-26T18:56:45.965Z,98969.42
2019-05-26T18:59:14.024Z,98967.55
2019-05-26T19:01:41.992Z,98967.77
2019-05-26T19:04:09.911Z,98965.34
2019-05-26T19:06:37.924Z,98965.12
2019-05-26T19:09:08.095Z,98967.94
2019-05-26T19:11:35.926Z,98962.61
2019-05-26T19:14:04.342Z,98963.25
2019-05-26T19:16:32.190Z,98963.16
2019-05-26T19:19:00.170Z,98963.69
2019-05-26T19:21:27.939Z,98961.97
2019-05-26T19:23:56.238Z,98964.68
2019-05-26T19:26:24.145Z,98967.72
2019-05-26T19:28:52.211Z,98961.12
2019-05-26T19:31:19.999Z,98960.77
2019-05-26T19:33:49.469Z,98963.12
2019-05-26T19:36:17.401Z,98962.25
2019-05-26T19:38:45.319Z,98971.66
2019-05-26T19:41:13.212Z,98970.53
2019-05-26T19:44:01.855Z,98968.30
2019-05-26T19:46:29.739Z,98967.91
2019-05-26T19:48:57.681Z,98967.06
2019-05-26T19:51:25.470Z,98969.02
2019-05-26T19:53:58.454Z,98968.34
2019-05-26T19:56:26.814Z,98969.98
2019-05-26T19:58:54.658Z,98971.98
2019-05-26T20:01:22.570Z,98973.14
2019-05-26T20:03:50.350Z,98970.45
2019-05-26T20:06:18.721Z,98977.30
2019-05-26T20:08:47.077Z,98976.41
2019-05-26T20:11:15.427Z,98978.66
2019-05-26T20:13:43.649Z,98984.48
2019-05-26T20:16:11.767Z,98986.87
2019-05-26T20:18:40.067Z,98984.09
2019-05-26T20:21:08.428Z,98982.83
2019-05-26T20:23:36.286Z,98981.38
2019-05-26T20:26:04.451Z,98981.23
2019-05-26T20:28:32.695Z,98984.59
2019-05-26T20:31:00.886Z,98986.88
2019-05-26T20:33:29.165Z,98985.17
2019-05-26T20:35:57.597Z,98984.33
2019-05-26T20:38:25.636Z,98984.83
2019-05-26T20:40:53.811Z,98985.31
2019-05-26T20:43:25.040Z,98988.41
2019-05-26T20:45:52.210Z,98985.80
2019-05-26T20:48:20.051Z,98980.64
2019-05-26T20:50:47.790Z,98979.33
2019-05-26T20:53:15.522Z,98976.80
2019-05-26T20:55:43.925Z,98975.61
2019-05-26T20:58:11.684Z,98976.62
2019-05-26T21:00:39.466Z,98976.42
2019-05-26T21:03:07.268Z,98973.87
2019-05-26T21:05:35.087Z,98971.47
2019-05-26T21:08:02.923Z,98975.04
2019-05-26T21:10:30.657Z,98976.57
2019-05-26T21:12:58.454Z,98980.11
2019-05-26T21:15:26.242Z,98979.37
2019-05-26T21:17:53.999Z,98978.50
2019-05-26T21:20:21.801Z,98978.25
2019-05-26T21:22:49.788Z,98978.89
2019-05-26T21:25:17.685Z,98980.54
2019-05-26T21:27:45.444Z,98977.41
2019-05-26T21:30:14.304Z,98979.64
2019-05-26T21:32:42.653Z,98983.59
2019-05-26T21:35:11.661Z,98985.65
2019-05-26T21:37:39.436Z,98982.14
2019-05-26T21:40:07.629Z,98982.05
2019-05-26T21:42:35.421Z,98986.22
2019-05-26T21:45:03.563Z,98984.19
2019-05-26T21:47:31.361Z,98985.78
2019-05-26T21:49:59.157Z,98981.16
2019-05-26T21:52:26.918Z,98977.10
2019-05-26T21:54:54.670Z,98977.67
2019-05-26T21:57:22.443Z,98975.80
2019-05-26T21:59:50.237Z,98982.03
2019-05-26T22:02:17.933Z,98988.46
2019-05-26T22:05:05.482Z,98988.89
2019-05-26T22:07:33.297Z,98984.47
2019-05-26T22:10:01.140Z,98979.97
2019-05-26T22:12:28.944Z,98979.95
2019-05-26T22:14:57.136Z,98977.27
2019-05-26T22:17:24.871Z,98973.73
2019-05-26T22:19:52.512Z,98973.80
2019-05-26T22:22:21.122Z,98977.24
2019-05-26T22:24:49.056Z,98975.72
2019-05-26T22:27:16.848Z,98979.76
2019-05-26T22:29:44.552Z,98978.64
2019-05-26T22:32:12.368Z,98974.80
2019-05-26T22:34:40.176Z,98972.75
2019-05-26T22:37:07.985Z,98977.98
2019-05-26T22:39:35.754Z,98973.81
2019-05-26T22:42:03.522Z,98969.91
2019-05-26T22:44:31.521Z,98967.47
2019-05-26T22:46:59.311Z,98966.44
2019-05-26T22:49:27.066Z,98966.73
2019-05-26T22:51:54.880Z,98967.20
2019-05-26T22:54:22.669Z,98971.94
2019-05-26T22:56:50.464Z,98977.48
2019-05-26T22:59:18.239Z,98968.79
2019-05-26T23:01:46.265Z,98962.64
2019-05-26T23:04:14.337Z,98967.75
2019-05-26T23:06:42.121Z,98967.52
2019-05-26T23:09:09.914Z,98966.70
2019-05-26T23:11:37.744Z,98961.80
2019-05-26T23:14:05.513Z,98959.41
2019-05-26T23:16:33.402Z,98953.95
2019-05-26T23:19:01.171Z,98952.47
2019-05-26T23:21:28.942Z,98953.59
2019-05-26T23:23:56.681Z,98952.47
2019-05-26T23:26:24.566Z,98956.16
2019-05-26T23:28:52.335Z,98947.86
2019-05-26T23:31:20.134Z,98948.87
2019-05-26T23:33:48.360Z,98950.51
2019-05-26T23:36:16.105Z,98953.94
2019-05-26T23:38:43.978Z,98952.23
2019-05-26T23:41:11.742Z,98949.52
2019-05-26T23:43:39.659Z,98950.23
2019-05-26T23:46:07.443Z,98948.25
2019-05-26T23:48:35.212Z,98944.94
2019-05-26T23:51:03.002Z,98943.28
2019-05-26T23:53:31.076Z,98944.80
2019-05-26T23:55:58.848Z,98943.48
2019-05-26T23:58:26.586Z,98936.41
